createdAt,value
2023-05-21T05:31:33.170Z,9.2979
2023-05-21T05:32:35.139Z,9.2885
2023-05-21T05:33:37.118Z,10.9251
2023-05-21T05:34:39.171Z,10.3332
2023-05-21T05:35:41.235Z,10.4217
2023-05-21T05:36:43.274Z,10.3138
2023-05-21T05:37:45.313Z,9.8042
2023-05-21T05:38:47.380Z,9.5064
2023-05-21T05:39:49.383Z,9.8545
2023-05-21T05:40:51.430Z,8.7875
2023-05-21T05:41:53.511Z,9.6719
2023-05-21T05:42:55.553Z,9.1735
2023-05-21T05:43:57.588Z,8.7418
2023-05-21T05:44:59.632Z,8.6282
2023-05-21T05:46:01.703Z,9.6932
2023-05-21T05:47:03.709Z,9.4546
2023-05-21T05:48:05.766Z,9.1531
2023-05-21T05:49:07.806Z,10.6043
2023-05-21T05:50:09.867Z,8.4502
2023-05-21T05:51:11.920Z,9.3907
2023-05-21T05:52:13.939Z,9.9410
2023-05-21T05:53:15.976Z,9.8427
2023-05-21T05:54:18.022Z,8.6938
2023-05-21T05:55:20.098Z,10.5172
2023-05-21T05:56:22.138Z,9.0902
2023-05-21T05:57:24.155Z,10.6311
2023-05-21T05:58:26.231Z,8.7831
2023-05-21T05:59:28.288Z,9.9873
2023-05-21T06:00:30.350Z,9.6017
2023-05-21T06:01:32.370Z,9.5204
2023-05-21T06:02:34.467Z,9.9812
2023-05-21T06:03:36.679Z,9.5017
2023-05-21T06:04:38.489Z,9.0121
2023-05-21T06:05:40.780Z,9.8295
2023-05-21T06:06:42.591Z,11.0866
2023-05-21T06:07:44.608Z,9.1387
2023-05-21T06:08:46.666Z,8.9761
2023-05-21T06:09:48.715Z,8.7113
2023-05-21T06:10:50.753Z,8.6801
2023-05-21T06:11:52.793Z,9.0693
2023-05-21T06:12:54.851Z,9.4457
2023-05-21T06:13:56.884Z,10.6063
2023-05-21T06:14:58.928Z,8.1930
2023-05-21T06:16:01.043Z,8.0093
2023-05-21T06:17:03.036Z,8.5889
2023-05-21T06:18:05.071Z,8.1276
2023-05-21T06:19:07.128Z,9.0203
2023-05-21T06:20:09.129Z,7.4460
2023-05-21T06:21:11.199Z,8.8958
2023-05-21T06:22:13.262Z,8.5809
2023-05-21T06:23:15.285Z,9.5194
2023-05-21T06:24:17.312Z,9.8951
2023-05-21T06:25:19.375Z,8.7400
2023-05-21T06:26:21.414Z,9.2597
2023-05-21T06:27:23.455Z,9.4328
2023-05-21T06:28:25.490Z,9.0912
2023-05-21T06:29:27.586Z,8.3312
2023-05-21T06:30:29.608Z,9.0763
2023-05-21T06:31:31.630Z,10.2667
2023-05-21T06:32:33.821Z,9.2076
2023-05-21T06:33:35.844Z,9.8683
2023-05-21T06:34:37.793Z,9.4095
2023-05-21T06:35:39.820Z,9.0081
2023-05-21T06:36:41.884Z,8.7258
2023-05-21T06:37:43.939Z,9.5307
2023-05-21T06:38:45.970Z,9.0517
2023-05-21T06:39:48.035Z,9.3816
2023-05-21T06:40:50.049Z,8.8546
2023-05-21T06:41:52.084Z,8.8417
2023-05-21T06:42:54.149Z,8.6476
2023-05-21T06:43:56.188Z,9.9154
2023-05-21T06:44:58.239Z,10.3143
2023-05-21T06:46:00.298Z,7.4140
2023-05-21T06:47:02.305Z,8.6907
2023-05-21T06:48:04.401Z,10.2912
2023-05-21T06:49:06.426Z,11.1085
2023-05-21T06:50:08.461Z,8.8914
2023-05-21T06:51:10.526Z,8.5917
2023-05-21T06:52:12.646Z,10.2813
2023-05-21T06:53:14.580Z,9.0530
2023-05-21T06:54:16.677Z,8.1946
2023-05-21T06:55:18.701Z,10.6432
2023-05-21T06:56:20.735Z,9.4797
2023-05-21T06:57:22.774Z,10.0300
2023-05-21T06:58:24.805Z,8.6890
2023-05-21T06:59:26.869Z,8.4392
2023-05-21T07:00:28.918Z,9.0274
2023-05-21T07:01:31.024Z,10.9541
2023-05-21T07:02:33.181Z,10.1067
2023-05-21T07:03:35.090Z,9.9945
2023-05-21T07:04:37.103Z,10.4023
2023-05-21T07:05:39.643Z,10.4936
2023-05-21T07:06:41.181Z,8.8032
2023-05-21T07:07:43.224Z,12.1862
2023-05-21T07:08:45.295Z,8.7155
2023-05-21T07:09:47.344Z,11.7328
2023-05-21T07:10:49.388Z,11.1893
2023-05-21T07:11:59.002Z,10.3666
2023-05-21T07:12:54.019Z,9.4212
2023-05-21T07:13:55.588Z,10.7872
2023-05-21T07:14:59.371Z,10.0107
2023-05-21T07:15:59.599Z,10.1296
2023-05-21T07:17:01.744Z,10.3212
2023-05-21T07:18:04.519Z,10.3220
2023-05-21T07:19:05.913Z,10.0552
2023-05-21T07:20:07.769Z,9.5124
2023-05-21T07:21:09.822Z,8.1012
2023-05-21T07:22:11.906Z,10.2100
2023-05-21T07:23:13.930Z,10.9859
2023-05-21T07:24:15.982Z,9.8366
2023-05-21T07:25:18.047Z,9.3488
2023-05-21T07:26:20.045Z,9.7440
2023-05-21T07:27:25.738Z,11.3480
2023-05-21T07:28:24.174Z,10.6168
2023-05-21T07:29:26.224Z,12.2473
2023-05-21T07:30:28.252Z,13.9675
2023-05-21T07:31:30.371Z,12.1476
2023-05-21T07:32:32.357Z,12.3874
2023-05-21T07:33:34.408Z,10.9477
2023-05-21T07:34:36.444Z,12.5297
2023-05-21T07:35:38.602Z,11.4159
2023-05-21T07:36:40.567Z,12.0670
2023-05-21T07:37:42.578Z,10.2716
2023-05-21T07:38:44.620Z,11.7331
2023-05-21T07:39:46.666Z,12.2353
2023-05-21T07:40:48.707Z,14.1666
2023-05-21T07:41:50.780Z,13.3520
2023-05-21T07:42:52.836Z,8.8593
2023-05-21T07:43:54.868Z,11.8440
2023-05-21T07:44:56.918Z,11.9015
2023-05-21T07:45:58.983Z,12.6356
2023-05-21T07:47:01.011Z,11.5898
2023-05-21T07:48:03.138Z,11.3267
2023-05-21T07:49:05.120Z,12.8165
2023-05-21T07:50:07.134Z,13.3496
2023-05-21T07:51:09.210Z,12.0811
2023-05-21T07:52:11.251Z,10.9039
2023-05-21T07:53:13.336Z,12.6104
2023-05-21T07:54:15.404Z,14.7336
2023-05-21T07:55:18.034Z,13.2015
2023-05-21T07:56:19.410Z,14.6532
2023-05-21T07:57:21.500Z,12.8812
2023-05-21T07:58:23.517Z,11.5866
2023-05-21T07:59:26.586Z,12.6021
2023-05-21T08:00:27.596Z,13.4564
2023-05-21T08:01:29.662Z,13.0646
2023-05-21T08:02:31.792Z,13.3593
2023-05-21T08:03:33.920Z,12.4946
2023-05-21T08:04:37.478Z,12.8351
2023-05-21T08:05:38.147Z,13.6696
2023-05-21T08:06:40.228Z,14.4157
2023-05-21T08:07:41.918Z,13.7811
2023-05-21T08:08:44.000Z,15.0746
2023-05-21T08:09:46.052Z,14.0170
2023-05-21T08:10:48.089Z,14.7736
2023-05-21T08:11:50.222Z,12.3245
2023-05-21T08:12:52.194Z,15.2890
2023-05-21T08:13:54.250Z,14.3141
2023-05-21T08:14:56.261Z,15.7356
2023-05-21T08:15:58.339Z,15.2822
2023-05-21T08:17:00.381Z,14.1616
2023-05-21T08:18:02.535Z,14.3109
2023-05-21T08:19:04.502Z,14.7975
2023-05-21T08:20:06.512Z,12.3129
2023-05-21T08:21:08.579Z,14.6018
2023-05-21T08:22:10.655Z,12.6649
2023-05-21T08:23:12.721Z,13.7723
2023-05-21T08:24:14.819Z,14.0572
2023-05-21T08:25:16.734Z,14.9961
2023-05-21T08:26:18.821Z,12.7145
2023-05-21T08:27:20.830Z,15.9599
2023-05-21T08:28:22.900Z,15.4470
2023-05-21T08:29:24.924Z,16.3788
2023-05-21T08:30:27.146Z,16.1798
2023-05-21T08:31:29.204Z,15.3694
2023-05-21T08:32:31.124Z,16.1402
2023-05-21T08:33:33.138Z,13.6257
2023-05-21T08:34:36.685Z,16.0394
2023-05-21T08:35:37.382Z,16.1971
2023-05-21T08:36:39.359Z,13.2868
2023-05-21T08:37:41.339Z,14.9865
2023-05-21T08:38:43.362Z,14.2776
2023-05-21T08:39:45.506Z,13.3501
2023-05-21T08:40:47.456Z,14.5726
2023-05-21T08:41:49.770Z,14.2581
2023-05-21T08:42:51.594Z,16.5389
2023-05-21T08:43:54.952Z,14.0690
2023-05-21T08:44:55.727Z,13.7768
2023-05-21T08:45:57.711Z,13.8470
2023-05-21T08:46:59.759Z,15.4225
2023-05-21T08:48:01.835Z,14.7877
2023-05-21T08:49:03.868Z,13.6982
2023-05-21T08:50:05.871Z,14.1732
2023-05-21T08:51:07.937Z,15.3113
2023-05-21T08:52:09.985Z,12.7672
2023-05-21T08:53:23.417Z,13.8351
2023-05-21T08:54:14.097Z,14.1153
2023-05-21T08:55:16.122Z,14.2445
2023-05-21T08:56:18.285Z,15.1245
2023-05-21T08:57:20.256Z,13.9879
2023-05-21T08:58:22.285Z,14.3978
2023-05-21T08:59:24.342Z,14.0372
2023-05-21T09:00:26.373Z,15.1228
2023-05-21T09:01:28.498Z,15.8461
2023-05-21T09:02:30.535Z,16.4809
2023-05-21T09:03:32.579Z,14.8381
2023-05-21T09:04:34.739Z,14.5142
2023-05-21T09:05:36.797Z,13.9567
2023-05-21T09:06:38.741Z,14.8730
2023-05-21T09:07:40.745Z,15.8550
2023-05-21T09:08:42.780Z,16.8761
2023-05-21T09:09:44.823Z,14.6772
2023-05-21T09:10:46.904Z,15.5545
2023-05-21T09:11:48.927Z,16.7039
2023-05-21T09:12:52.019Z,15.6509
2023-05-21T09:13:53.032Z,17.5533
2023-05-21T09:14:55.044Z,14.9464
2023-05-21T09:15:57.099Z,14.5527
2023-05-21T09:16:59.428Z,16.1762
2023-05-21T09:18:01.237Z,15.8894
2023-05-21T09:19:04.603Z,15.6503
2023-05-21T09:20:05.350Z,14.4982
2023-05-21T09:21:07.377Z,13.9124
2023-05-21T09:22:09.415Z,17.2820
2023-05-21T09:23:11.535Z,13.9096
2023-05-21T09:24:13.518Z,16.2787
2023-05-21T09:25:15.675Z,14.4580
2023-05-21T09:26:17.614Z,14.8310
2023-05-21T09:27:19.668Z,15.4212
2023-05-21T09:28:21.756Z,15.3407
2023-05-21T09:29:23.737Z,14.3199
2023-05-21T09:30:28.814Z,13.4380
2023-05-21T09:31:27.902Z,15.3327
2023-05-21T09:32:29.964Z,15.8713
2023-05-21T09:33:32.010Z,16.0601
2023-05-21T09:34:34.060Z,16.7051
2023-05-21T09:35:37.503Z,14.4807
2023-05-21T09:36:38.192Z,14.9924
2023-05-21T09:37:40.231Z,13.4799
2023-05-21T09:38:42.283Z,13.4957
2023-05-21T09:39:44.303Z,14.5151
2023-05-21T09:40:46.396Z,13.9242
2023-05-21T09:41:48.417Z,14.3589
2023-05-21T09:42:50.488Z,14.5846
2023-05-21T09:43:52.499Z,13.9131
2023-05-21T09:44:54.536Z,11.9314
2023-05-21T09:45:57.750Z,11.7893
2023-05-21T09:46:58.843Z,13.3403
2023-05-21T09:48:00.802Z,13.9198
2023-05-21T09:49:02.746Z,14.8578
2023-05-21T09:50:04.821Z,14.5081
2023-05-21T09:51:06.816Z,12.8606
2023-05-21T09:52:08.870Z,13.7009
2023-05-21T09:53:10.968Z,12.9776
2023-05-21T09:54:12.986Z,13.6816
2023-05-21T09:55:15.019Z,13.3429
2023-05-21T09:56:17.105Z,13.8815
2023-05-21T09:57:19.131Z,13.9985
2023-05-21T09:58:21.212Z,11.7031
2023-05-21T09:59:23.799Z,13.2735
2023-05-21T10:00:25.257Z,14.5431
2023-05-21T10:01:27.374Z,13.8679
2023-05-21T10:02:29.428Z,14.2690
2023-05-21T10:03:31.434Z,13.7147
2023-05-21T10:04:33.469Z,16.2155
2023-05-21T10:05:35.521Z,14.9928
2023-05-21T10:06:37.566Z,13.7137
2023-05-21T10:07:39.595Z,15.7801
2023-05-21T10:08:41.655Z,16.7599
2023-05-21T10:09:43.714Z,13.7189
2023-05-21T10:10:45.736Z,14.9159
2023-05-21T10:11:47.801Z,15.0235
2023-05-21T10:12:49.879Z,14.6592
2023-05-21T10:13:51.882Z,16.4342
2023-05-21T10:14:53.890Z,15.6017
2023-05-21T10:15:55.950Z,15.1008
2023-05-21T10:16:58.083Z,15.1662
2023-05-21T10:18:00.080Z,16.0565
2023-05-21T10:19:02.140Z,15.6048
2023-05-21T10:20:04.135Z,13.9857
2023-05-21T10:21:06.161Z,15.9701
2023-05-21T10:22:08.209Z,14.6892
2023-05-21T10:23:10.259Z,15.6519
2023-05-21T10:24:12.312Z,15.3675
2023-05-21T10:25:14.380Z,15.0351
2023-05-21T10:26:16.394Z,15.3777
2023-05-21T10:27:18.426Z,14.7527
2023-05-21T10:28:20.518Z,14.3720
2023-05-21T10:29:22.529Z,13.5131
2023-05-21T10:30:24.559Z,15.4147
2023-05-21T10:31:26.644Z,14.4855
2023-05-21T10:32:28.966Z,14.4949
2023-05-21T10:33:30.787Z,17.8263
2023-05-21T10:34:32.738Z,17.0810
2023-05-21T10:36:36.858Z,12.3210
2023-05-21T10:37:38.905Z,13.9714
2023-05-21T10:38:41.180Z,15.0719
2023-05-21T10:39:42.973Z,14.3660
2023-05-21T10:40:45.013Z,14.9628
2023-05-21T10:41:47.163Z,14.8554
2023-05-21T10:42:49.135Z,14.8764
2023-05-21T10:43:51.202Z,14.2635
2023-05-21T10:44:53.212Z,13.2669
2023-05-21T10:45:55.361Z,15.2213
2023-05-21T10:46:57.275Z,12.4588
2023-05-21T10:47:59.318Z,12.7720
2023-05-21T10:49:01.367Z,13.7243
2023-05-21T10:50:03.415Z,12.5549
2023-05-21T10:51:05.507Z,15.0274
2023-05-21T10:52:07.508Z,14.9088
2023-05-21T10:53:10.925Z,14.9226
2023-05-21T10:54:11.571Z,15.2932
2023-05-21T10:55:13.825Z,16.0273
2023-05-21T10:56:15.729Z,14.3216
2023-05-21T10:57:17.731Z,14.5857
2023-05-21T10:58:19.748Z,14.0937
2023-05-21T10:59:21.819Z,14.3549
2023-05-21T11:00:23.853Z,15.1919
2023-05-21T11:01:26.042Z,12.7939
2023-05-21T11:02:28.003Z,14.7222
2023-05-21T11:03:30.180Z,14.7732
2023-05-21T11:04:32.023Z,15.1197
2023-05-21T11:05:34.079Z,14.5200
2023-05-21T11:06:36.128Z,14.1365
2023-05-21T11:07:38.174Z,14.8126
2023-05-21T11:08:40.217Z,13.5092
2023-05-21T11:09:42.273Z,14.5816
2023-05-21T11:10:44.288Z,13.2095
2023-05-21T11:11:46.475Z,13.2287
2023-05-21T11:12:48.382Z,13.3026
2023-05-21T11:13:50.439Z,12.8192
2023-05-21T11:14:52.445Z,16.5307
2023-05-21T11:15:54.568Z,15.1318
2023-05-21T11:16:56.578Z,16.9247
2023-05-21T11:17:58.676Z,15.2403
2023-05-21T11:19:00.902Z,13.7080
2023-05-21T11:20:02.682Z,13.1227
2023-05-21T11:21:04.747Z,12.4746
2023-05-21T11:22:06.864Z,11.8880
2023-05-21T11:23:08.824Z,14.5231
2023-05-21T11:24:10.869Z,13.5029
2023-05-21T11:25:12.909Z,12.5194
2023-05-21T11:26:14.943Z,13.6031
2023-05-21T11:27:17.118Z,14.5038
2023-05-21T11:28:19.056Z,14.6061
2023-05-21T11:29:21.113Z,14.3892
2023-05-21T11:30:23.130Z,13.8809
2023-05-21T11:31:25.219Z,12.9059
2023-05-21T11:32:27.218Z,12.7056
2023-05-21T11:33:29.375Z,13.2947
2023-05-21T11:34:31.296Z,13.8145
2023-05-21T11:35:33.346Z,13.4499
2023-05-21T11:36:36.084Z,11.7542
2023-05-21T11:37:37.404Z,14.7456
2023-05-21T11:38:39.457Z,13.9574
2023-05-21T11:39:41.600Z,13.6076
2023-05-21T11:40:43.572Z,12.3990
2023-05-21T11:41:45.610Z,13.5591
2023-05-21T11:42:47.636Z,12.5486
2023-05-21T11:43:49.681Z,12.0848
2023-05-21T11:44:51.716Z,10.4110
2023-05-21T11:45:53.852Z,10.6296
2023-05-21T11:46:55.952Z,10.4767
2023-05-21T11:47:57.917Z,11.7329
2023-05-21T11:48:59.915Z,11.4573
2023-05-21T11:50:01.953Z,10.7532
2023-05-21T11:51:04.012Z,11.9984
2023-05-21T11:52:06.064Z,10.1335
2023-05-21T11:53:08.127Z,10.8530
2023-05-21T11:54:10.218Z,11.5813
2023-05-21T11:55:12.462Z,12.4273
2023-05-21T11:56:14.235Z,11.9831
2023-05-21T11:57:16.322Z,10.2550
2023-05-21T11:58:18.354Z,12.1597
2023-05-21T11:59:20.942Z,10.8503
2023-05-21T12:00:22.484Z,10.9798
2023-05-21T12:01:24.455Z,10.0179
2023-05-21T12:02:26.555Z,10.7785
2023-05-21T12:03:28.595Z,10.2954
2023-05-21T12:04:30.575Z,10.6979
2023-05-21T12:05:32.698Z,11.5173
2023-05-21T12:06:34.695Z,9.7436
2023-05-21T12:07:36.755Z,9.3758
2023-05-21T12:08:38.753Z,8.6028
2023-05-21T12:09:40.895Z,7.8484
2023-05-21T12:10:44.427Z,8.5886
2023-05-21T12:11:44.907Z,8.8992
2023-05-21T12:12:55.610Z,9.6709
2023-05-21T12:13:49.010Z,9.9261
2023-05-21T12:14:51.017Z,10.1438
2023-05-21T12:15:53.069Z,11.4553
2023-05-21T12:16:55.163Z,11.0154
2023-05-21T12:17:57.396Z,10.3944
2023-05-21T12:18:59.250Z,10.8687
2023-05-21T12:20:01.290Z,10.5168
2023-05-21T12:21:03.349Z,11.2649
2023-05-21T12:22:05.368Z,10.3212
2023-05-21T12:23:07.418Z,12.2035
2023-05-21T12:24:09.547Z,11.7598
2023-05-21T12:25:11.535Z,11.4979
2023-05-21T12:26:13.586Z,12.7078
2023-05-21T12:27:15.735Z,11.5235
2023-05-21T12:28:17.687Z,10.5832
2023-05-21T12:29:19.702Z,10.8344
2023-05-21T12:30:21.802Z,11.3144
2023-05-21T12:31:23.846Z,12.6548
2023-05-21T12:32:25.918Z,11.8893
2023-05-21T12:33:27.894Z,10.8258
2023-05-21T12:34:29.943Z,12.4293
2023-05-21T12:35:32.082Z,12.7378
2023-05-21T12:36:34.071Z,12.3088
2023-05-21T12:37:36.111Z,11.2106
2023-05-21T12:38:38.126Z,12.9677
2023-05-21T12:39:40.175Z,11.5236
2023-05-21T12:40:42.234Z,12.7457
2023-05-21T12:41:44.281Z,11.4511
2023-05-21T12:42:46.325Z,12.1284
2023-05-21T12:43:48.371Z,10.5337
2023-05-21T12:44:50.404Z,13.2668
2023-05-21T12:45:52.503Z,12.2652
2023-05-21T12:46:54.513Z,11.2678
2023-05-21T12:47:56.753Z,10.0524
2023-05-21T12:48:58.589Z,12.4581
2023-05-21T12:50:00.641Z,11.5274
2023-05-21T12:51:02.704Z,11.3886
2023-05-21T12:52:04.761Z,10.9932
2023-05-21T12:53:06.830Z,11.5628
2023-05-21T12:54:08.832Z,11.9585
2023-05-21T12:55:10.895Z,14.0381
2023-05-21T12:56:12.917Z,12.3154
2023-05-21T12:57:14.980Z,13.4797
2023-05-21T12:58:17.002Z,11.1005
2023-05-21T12:59:19.055Z,11.9566
2023-05-21T13:00:21.107Z,12.8263
2023-05-21T13:01:23.167Z,12.3252
2023-05-21T13:02:25.243Z,12.4322
2023-05-21T13:03:27.248Z,14.1806
2023-05-21T13:04:29.308Z,13.6037
2023-05-21T13:05:31.327Z,12.2549
2023-05-21T13:06:33.388Z,11.6893
2023-05-21T13:07:35.417Z,11.8277
2023-05-21T13:08:37.489Z,12.4435
2023-05-21T13:09:39.513Z,11.5437
2023-05-21T13:10:41.565Z,11.9555
2023-05-21T13:11:43.658Z,12.2062
2023-05-21T13:12:45.700Z,11.5724
2023-05-21T13:13:47.727Z,11.7001
2023-05-21T13:14:49.773Z,11.8387
2023-05-21T13:15:51.802Z,11.7643
2023-05-21T13:16:53.869Z,11.7743
2023-05-21T13:17:56.948Z,12.1383
2023-05-21T13:18:58.031Z,11.1194
2023-05-21T13:20:00.005Z,12.4707
2023-05-21T13:21:02.021Z,13.2201
2023-05-21T13:22:04.097Z,13.0607
2023-05-21T13:23:07.263Z,13.2263
2023-05-21T13:24:08.170Z,11.9201
2023-05-21T13:25:10.235Z,10.6326
2023-05-21T13:26:12.283Z,13.2486
2023-05-21T13:27:14.330Z,12.2178
2023-05-21T13:28:16.359Z,11.7316
2023-05-21T13:29:18.437Z,11.4856
2023-05-21T13:30:20.486Z,11.9821
2023-05-21T13:31:22.492Z,10.5799
2023-05-21T13:32:24.622Z,11.4527
2023-05-21T13:33:26.801Z,12.1449
2023-05-21T13:34:28.637Z,10.3369
2023-05-21T13:35:31.177Z,12.6556
2023-05-21T13:36:32.725Z,12.6541
2023-05-21T13:37:34.765Z,12.3715
2023-05-21T13:38:36.823Z,12.4671
2023-05-21T13:39:38.897Z,13.1246
2023-05-21T13:40:41.102Z,10.7961
2023-05-21T13:41:43.044Z,12.7203
2023-05-21T13:42:45.200Z,12.0087
2023-05-21T13:43:47.117Z,11.0202
2023-05-21T13:44:49.194Z,11.1480
2023-05-21T13:45:51.228Z,11.4085
2023-05-21T13:46:53.353Z,9.8065
2023-05-21T13:47:55.363Z,10.8529
2023-05-21T13:48:57.348Z,12.0882
2023-05-21T13:49:59.412Z,11.0364
2023-05-21T13:51:01.446Z,9.8048
2023-05-21T13:52:03.579Z,10.8910
2023-05-21T13:53:05.485Z,10.2368
2023-05-21T13:54:07.544Z,10.1036
2023-05-21T13:55:09.574Z,10.8663
2023-05-21T13:56:11.637Z,11.6705
2023-05-21T13:57:13.694Z,8.7890
2023-05-21T13:58:15.746Z,9.5684
2023-05-21T13:59:17.763Z,9.7678
2023-05-21T14:00:19.831Z,11.3505
2023-05-21T14:01:21.926Z,9.7167
2023-05-21T14:02:24.042Z,9.6086
2023-05-21T14:03:26.010Z,9.0995
2023-05-21T14:04:28.007Z,8.8012
2023-05-21T14:05:30.021Z,9.5468
2023-05-21T14:06:32.101Z,9.8890
2023-05-21T14:07:34.170Z,9.1399
2023-05-21T14:08:36.214Z,10.2657
2023-05-21T14:09:38.240Z,9.1948
2023-05-21T14:10:40.308Z,7.4021
2023-05-21T14:11:42.404Z,9.2979
2023-05-21T14:12:44.343Z,9.2687
2023-05-21T14:13:46.397Z,10.3472
2023-05-21T14:14:48.498Z,9.0252
2023-05-21T14:15:50.524Z,8.2652
2023-05-21T14:16:52.873Z,9.1984
2023-05-21T14:17:54.782Z,8.5888
2023-05-21T14:18:56.687Z,10.3027
2023-05-21T14:19:58.747Z,10.7648
2023-05-21T14:21:00.764Z,9.4881
2023-05-21T14:22:02.781Z,10.7735
2023-05-21T14:23:04.832Z,9.0487
2023-05-21T14:24:07.016Z,10.9697
2023-05-21T14:25:08.968Z,11.4731
2023-05-21T14:26:11.011Z,7.2020
2023-05-21T14:27:15.273Z,8.9584
2023-05-21T14:28:15.138Z,10.4252
2023-05-21T14:29:17.054Z,8.7983
2023-05-21T14:30:19.116Z,8.4599
2023-05-21T14:31:21.154Z,8.6725
2023-05-21T14:32:23.449Z,9.2705
2023-05-21T14:33:25.270Z,9.0316
2023-05-21T14:34:27.290Z,8.2478
2023-05-21T14:35:29.396Z,8.6456
2023-05-21T14:36:31.543Z,8.6807
2023-05-21T14:37:33.474Z,8.8974
2023-05-21T14:38:35.448Z,7.7469
2023-05-21T14:39:37.507Z,8.0104
2023-05-21T14:40:39.636Z,8.0160
2023-05-21T14:41:41.627Z,7.1577
2023-05-21T14:42:43.681Z,7.4070
2023-05-21T14:43:45.685Z,7.3960
2023-05-21T14:44:47.751Z,7.1738
2023-05-21T14:45:49.786Z,7.3753
2023-05-21T14:46:51.852Z,6.7120
2023-05-21T14:47:53.940Z,7.4313
2023-05-21T14:48:55.912Z,6.9095
2023-05-21T14:49:58.074Z,7.1163
2023-05-21T14:51:00.072Z,6.6090
2023-05-21T14:52:02.050Z,6.8711
2023-05-21T14:53:04.146Z,7.4316
2023-05-21T14:54:06.129Z,5.5049
2023-05-21T14:55:08.152Z,5.7492
2023-05-21T14:56:10.259Z,5.4925
2023-05-21T14:57:12.355Z,5.3060
2023-05-21T14:58:14.773Z,5.5854
2023-05-21T14:59:16.358Z,4.9839
2023-05-21T15:00:18.420Z,5.2062
2023-05-21T15:01:20.480Z,7.1895
2023-05-21T15:02:22.559Z,7.2337
2023-05-21T15:03:24.710Z,7.3518
2023-05-21T15:04:26.686Z,8.9682
2023-05-21T15:05:28.653Z,7.2918
2023-05-21T15:06:30.696Z,7.6776
2023-05-21T15:07:32.712Z,7.7689
2023-05-21T15:08:34.850Z,6.3157
2023-05-21T15:09:36.817Z,6.4908
2023-05-21T15:10:38.911Z,6.4749
2023-05-21T15:11:40.915Z,6.8399
2023-05-21T15:12:43.032Z,9.5741
2023-05-21T15:13:44.994Z,7.9401
2023-05-21T15:14:47.021Z,7.8091
2023-05-21T15:15:49.114Z,7.5373
2023-05-21T15:16:51.249Z,7.4654
2023-05-21T15:17:53.211Z,8.9051
2023-05-21T15:18:55.238Z,8.3144
2023-05-21T15:19:57.295Z,6.8659
2023-05-21T15:20:59.339Z,6.5303
2023-05-21T15:22:01.405Z,7.3831
2023-05-21T15:24:05.452Z,6.4971
2023-05-21T15:25:07.540Z,5.3263
2023-05-21T15:26:09.554Z,7.8918
2023-05-21T15:27:11.615Z,5.9974
2023-05-21T15:28:13.665Z,6.6788
2023-05-21T15:29:15.708Z,6.6974
2023-05-21T15:30:17.745Z,6.4980
2023-05-21T15:31:19.789Z,7.0162
2023-05-21T15:32:21.920Z,6.5053
2023-05-21T15:33:23.896Z,7.2748
2023-05-21T15:34:25.958Z,7.8744
2023-05-21T15:35:28.148Z,9.0450
2023-05-21T15:36:30.007Z,6.5357
2023-05-21T15:37:32.118Z,7.2767
2023-05-21T15:38:34.133Z,7.9045
2023-05-21T15:39:36.173Z,7.5444
2023-05-21T15:40:38.233Z,7.8214
2023-05-21T15:41:40.280Z,7.2874
2023-05-21T15:42:42.288Z,7.0162
2023-05-21T15:43:44.328Z,6.5364
2023-05-21T15:44:46.449Z,6.5369
2023-05-21T15:45:48.448Z,7.9455
2023-05-21T15:46:50.524Z,8.0404
2023-05-21T15:47:52.669Z,8.4964
2023-05-21T15:48:54.580Z,7.5597
2023-05-21T15:49:56.639Z,10.3573
2023-05-21T15:50:58.655Z,9.1226
2023-05-21T15:52:00.693Z,8.7979
2023-05-21T15:53:02.758Z,7.4949
2023-05-21T15:54:04.785Z,7.1704
2023-05-21T15:55:06.832Z,6.6249
2023-05-21T15:56:08.871Z,6.3060
2023-05-21T15:57:10.951Z,7.3167
2023-05-21T15:58:13.003Z,7.0862
2023-05-21T15:59:15.042Z,7.0914
